createdAt,value
2022-11-05T00:00:43.320Z,9.48
2022-11-05T00:01:43.329Z,9.49
2022-11-05T00:02:43.276Z,9.48
2022-11-05T00:03:43.349Z,9.49
2022-11-05T00:04:43.245Z,9.48
2022-11-05T00:05:43.245Z,9.49
2022-11-05T00:06:43.223Z,9.49
2022-11-05T00:07:43.225Z,9.49
2022-11-05T00:08:43.217Z,9.48
2022-11-05T00:09:43.195Z,9.45
2022-11-05T00:10:43.185Z,9.44
2022-11-05T00:11:43.164Z,9.42
2022-11-05T00:12:43.143Z,9.41
2022-11-05T00:13:43.152Z,9.41
2022-11-05T00:14:43.133Z,9.42
2022-11-05T00:15:43.135Z,9.41
2022-11-05T00:16:43.113Z,9.42
2022-11-05T00:17:43.110Z,9.41
2022-11-05T00:18:43.113Z,9.41
2022-11-05T00:19:43.064Z,9.42
2022-11-05T00:20:43.068Z,9.42
2022-11-05T00:21:43.041Z,9.41
2022-11-05T00:22:43.028Z,9.41
2022-11-05T00:23:43.029Z,9.41
2022-11-05T00:24:42.999Z,9.40
2022-11-05T00:25:43.001Z,9.41
2022-11-05T00:26:42.987Z,9.40
2022-11-05T00:27:42.962Z,9.40
2022-11-05T00:28:42.949Z,9.41
2022-11-05T00:29:42.940Z,9.40
2022-11-05T00:30:42.909Z,9.41
2022-11-05T00:31:42.910Z,9.41
2022-11-05T00:32:42.892Z,9.41
2022-11-05T00:33:42.902Z,9.41
2022-11-05T00:34:42.861Z,9.40
2022-11-05T00:35:42.852Z,9.40
2022-11-05T00:36:42.828Z,9.41
2022-11-05T00:37:48.704Z,9.41
2022-11-05T00:38:43.809Z,9.41
2022-11-05T00:39:42.806Z,9.42
2022-11-05T00:40:42.779Z,9.42
2022-11-05T00:41:42.775Z,9.41
2022-11-05T00:42:42.745Z,9.42
2022-11-05T00:43:42.781Z,9.41
2022-11-05T00:44:42.724Z,9.42
2022-11-05T00:45:42.731Z,9.41
2022-11-05T00:46:42.701Z,9.40
2022-11-05T00:47:42.706Z,9.40
2022-11-05T00:48:42.704Z,9.40
2022-11-05T00:49:42.665Z,9.40
2022-11-05T00:50:42.667Z,9.38
2022-11-05T00:51:42.635Z,9.37
2022-11-05T00:52:42.634Z,9.35
2022-11-05T00:53:42.626Z,9.35
2022-11-05T00:54:44.057Z,9.35
2022-11-05T00:55:42.593Z,9.35
2022-11-05T00:56:42.568Z,9.35
2022-11-05T00:57:42.565Z,9.35
2022-11-05T00:58:42.602Z,9.34
2022-11-05T00:59:42.543Z,9.35
2022-11-05T01:00:42.511Z,9.35
2022-11-05T01:01:42.623Z,9.34
2022-11-05T01:02:42.645Z,9.34
2022-11-05T01:03:45.140Z,9.34
2022-11-05T01:04:43.472Z,9.34
2022-11-05T01:05:43.718Z,9.32
2022-11-05T01:06:42.443Z,9.34
2022-11-05T01:07:42.460Z,9.35
2022-11-05T01:08:42.433Z,9.35
2022-11-05T01:09:42.405Z,9.37
2022-11-05T01:10:42.400Z,9.35
2022-11-05T01:11:42.391Z,9.34
2022-11-05T01:12:42.361Z,9.35
2022-11-05T01:13:42.391Z,9.35
2022-11-05T01:14:42.363Z,9.35
2022-11-05T01:15:42.330Z,9.35
2022-11-05T01:16:42.305Z,9.37
2022-11-05T01:17:42.317Z,9.35
2022-11-05T01:18:42.359Z,9.37
2022-11-05T01:19:42.287Z,9.35
2022-11-05T01:20:42.260Z,9.35
2022-11-05T01:21:42.278Z,9.34
2022-11-05T01:22:42.272Z,9.34
2022-11-05T01:23:42.223Z,9.34
2022-11-05T01:24:42.213Z,9.35
2022-11-05T01:25:42.558Z,9.35
2022-11-05T01:26:42.166Z,9.34
2022-11-05T01:27:42.175Z,9.34
2022-11-05T01:28:42.264Z,9.34
2022-11-05T01:29:42.146Z,9.32
2022-11-05T01:30:42.126Z,9.32
2022-11-05T01:31:42.117Z,9.32
2022-11-05T01:32:42.108Z,9.31
2022-11-05T01:33:42.088Z,9.31
2022-11-05T01:34:42.067Z,9.31
2022-11-05T01:35:42.065Z,9.30
2022-11-05T01:36:42.047Z,9.30
2022-11-05T01:37:42.070Z,9.30
2022-11-05T01:38:42.590Z,9.26
2022-11-05T01:39:42.046Z,9.26
2022-11-05T01:40:41.998Z,9.26
2022-11-05T01:41:41.974Z,9.26
2022-11-05T01:42:41.962Z,9.24
2022-11-05T01:43:41.963Z,9.23
2022-11-05T01:44:41.933Z,9.23
2022-11-05T01:45:41.924Z,9.22
2022-11-05T01:46:41.915Z,9.22
2022-11-05T01:47:41.912Z,9.22
2022-11-05T01:48:41.974Z,9.20
2022-11-05T01:49:41.884Z,9.22
2022-11-05T01:50:41.884Z,9.22
2022-11-05T01:51:41.873Z,9.20
2022-11-05T01:52:41.851Z,9.20
2022-11-05T01:53:41.840Z,9.20
2022-11-05T01:54:41.828Z,9.20
2022-11-05T01:55:41.819Z,9.17
2022-11-05T01:56:41.798Z,9.15
2022-11-05T01:57:41.789Z,9.15
2022-11-05T01:58:41.791Z,9.15
2022-11-05T01:59:41.764Z,9.15
2022-11-05T02:00:41.745Z,9.12
2022-11-05T02:01:41.881Z,9.12
2022-11-05T02:02:41.829Z,9.12
2022-11-05T02:03:41.715Z,9.10
2022-11-05T02:04:41.689Z,9.08
2022-11-05T02:05:41.682Z,9.06
2022-11-05T02:06:41.661Z,9.04
2022-11-05T02:07:41.649Z,9.06
2022-11-05T02:08:41.645Z,9.04
2022-11-05T02:09:41.617Z,9.03
2022-11-05T02:10:41.597Z,9.00
2022-11-05T02:11:41.598Z,9.01
2022-11-05T02:12:41.577Z,9.00
2022-11-05T02:13:41.617Z,8.98
2022-11-05T02:14:41.568Z,9.00
2022-11-05T02:15:41.565Z,9.00
2022-11-05T02:16:41.531Z,9.00
2022-11-05T02:17:41.537Z,8.98
2022-11-05T02:18:41.528Z,8.97
2022-11-05T02:19:41.497Z,8.96
2022-11-05T02:20:41.475Z,8.97
2022-11-05T02:21:41.467Z,8.96
2022-11-05T02:22:41.446Z,8.96
2022-11-05T02:23:41.446Z,8.93
2022-11-05T02:24:41.427Z,8.93
2022-11-05T02:25:41.407Z,8.91
2022-11-05T02:26:41.392Z,8.91
2022-11-05T02:27:41.374Z,8.89
2022-11-05T02:28:41.361Z,8.88
2022-11-05T02:29:41.364Z,8.89
2022-11-05T02:30:41.342Z,8.86
2022-11-05T02:31:41.338Z,8.85
2022-11-05T02:32:41.315Z,8.85
2022-11-05T02:33:41.303Z,8.83
2022-11-05T02:34:41.312Z,8.82
2022-11-05T02:35:41.277Z,8.79
2022-11-05T02:36:41.273Z,8.80
2022-11-05T02:37:41.263Z,8.79
2022-11-05T02:38:41.243Z,8.79
2022-11-05T02:39:41.212Z,8.79
2022-11-05T02:40:41.200Z,8.78
2022-11-05T02:41:41.200Z,8.76
2022-11-05T02:42:41.191Z,8.75
2022-11-05T02:44:57.838Z,8.79
2022-11-05T02:45:57.808Z,8.78
2022-11-05T02:46:57.776Z,8.76
2022-11-05T02:47:57.767Z,8.75
2022-11-05T02:48:58.045Z,8.73
2022-11-05T02:49:57.751Z,8.71
2022-11-05T02:50:57.727Z,8.70
2022-11-05T02:51:57.721Z,8.70
2022-11-05T02:52:57.725Z,8.70
2022-11-05T02:53:57.736Z,8.67
2022-11-05T02:54:57.679Z,8.67
2022-11-05T02:55:57.683Z,8.65
2022-11-05T02:56:57.657Z,8.65
2022-11-05T02:57:57.650Z,8.65
2022-11-05T02:58:57.661Z,8.65
2022-11-05T02:59:57.609Z,8.65
2022-11-05T03:00:57.606Z,8.64
2022-11-05T03:01:57.853Z,8.64
2022-11-05T03:02:57.641Z,8.64
2022-11-05T03:03:57.571Z,8.65
2022-11-05T03:04:57.594Z,8.65
2022-11-05T03:05:57.573Z,8.65
2022-11-05T03:06:57.552Z,8.64
2022-11-05T03:07:57.528Z,8.65
2022-11-05T03:08:57.532Z,8.64
2022-11-05T03:09:57.484Z,8.63
2022-11-05T03:10:57.510Z,8.63
2022-11-05T03:11:57.489Z,8.63
2022-11-05T03:12:57.487Z,8.63
2022-11-05T03:13:57.451Z,8.61
2022-11-05T03:14:57.501Z,8.63
2022-11-05T03:15:57.459Z,8.64
2022-11-05T03:16:57.431Z,8.63
2022-11-05T03:17:57.402Z,8.61
2022-11-05T03:18:57.388Z,8.61
2022-11-05T03:19:57.369Z,8.60
2022-11-05T03:20:57.361Z,8.61
2022-11-05T03:21:57.373Z,8.60
2022-11-05T03:22:57.326Z,8.60
2022-11-05T03:23:57.328Z,8.58
2022-11-05T03:24:57.314Z,8.57
2022-11-05T03:25:57.443Z,8.58
2022-11-05T03:26:57.296Z,8.58
2022-11-05T03:27:57.271Z,8.60
2022-11-05T03:28:57.259Z,8.58
2022-11-05T03:29:57.249Z,8.60
2022-11-05T03:30:57.227Z,8.60
2022-11-05T03:31:57.250Z,8.60
2022-11-05T03:32:57.212Z,8.60
2022-11-05T03:33:57.208Z,8.58
2022-11-05T03:34:57.211Z,8.58
2022-11-05T03:35:57.328Z,8.58
2022-11-05T03:36:57.166Z,8.58
2022-11-05T03:37:57.208Z,8.58
2022-11-05T03:38:57.142Z,8.58
2022-11-05T03:39:57.124Z,8.57
2022-11-05T03:40:57.235Z,8.57
2022-11-05T03:41:57.095Z,8.57
2022-11-05T03:42:57.091Z,8.54
2022-11-05T03:43:57.062Z,8.52
2022-11-05T03:44:57.080Z,8.52
2022-11-05T03:45:57.069Z,8.52
2022-11-05T03:46:57.033Z,8.52
2022-11-05T03:47:57.024Z,8.52
2022-11-05T03:48:57.164Z,8.50
2022-11-05T03:49:56.991Z,8.47
2022-11-05T03:50:56.973Z,8.46
2022-11-05T03:51:56.957Z,8.47
2022-11-05T03:52:56.949Z,8.47
2022-11-05T03:53:56.946Z,8.45
2022-11-05T03:54:56.922Z,8.45
2022-11-05T03:55:56.922Z,8.43
2022-11-05T03:56:56.900Z,8.45
2022-11-05T03:57:56.911Z,8.42
2022-11-05T03:58:59.068Z,8.42
2022-11-05T03:59:56.851Z,8.40
2022-11-05T04:00:56.853Z,8.39
2022-11-05T04:01:57.043Z,8.37
2022-11-05T04:02:56.877Z,8.37
2022-11-05T04:03:56.810Z,8.37
2022-11-05T04:04:56.797Z,8.39
2022-11-05T04:05:56.792Z,8.34
2022-11-05T04:06:56.780Z,8.36
2022-11-05T04:07:56.816Z,8.36
2022-11-05T04:08:56.778Z,8.32
2022-11-05T04:09:56.744Z,8.31
2022-11-05T04:10:56.727Z,8.29
2022-11-05T04:11:57.021Z,8.29
2022-11-05T04:12:56.721Z,8.28
2022-11-05T04:13:56.707Z,8.27
2022-11-05T04:14:56.668Z,8.25
2022-11-05T04:15:56.666Z,8.25
2022-11-05T04:16:56.696Z,8.25
2022-11-05T04:17:56.617Z,8.25
2022-11-05T04:18:56.627Z,8.22
2022-11-05T04:19:56.585Z,8.24
2022-11-05T04:20:56.591Z,8.21
2022-11-05T04:21:56.596Z,8.20
2022-11-05T04:22:56.565Z,8.20
2022-11-05T04:23:56.571Z,8.17
2022-11-05T04:24:56.532Z,8.20
2022-11-05T04:25:56.534Z,8.18
2022-11-05T04:26:56.514Z,8.17
2022-11-05T04:27:56.502Z,8.17
2022-11-05T04:28:56.505Z,8.14
2022-11-05T04:29:56.454Z,8.18
2022-11-05T04:30:56.455Z,8.17
2022-11-05T04:31:56.454Z,8.17
2022-11-05T04:32:56.459Z,8.14
2022-11-05T04:33:56.442Z,8.12
2022-11-05T04:34:56.448Z,8.12
2022-11-05T04:35:56.405Z,8.09
2022-11-05T04:36:56.386Z,8.09
2022-11-05T04:37:56.389Z,8.09
2022-11-05T04:38:56.367Z,8.09
2022-11-05T04:39:56.340Z,8.09
2022-11-05T04:40:56.337Z,8.06
2022-11-05T04:41:56.309Z,8.04
2022-11-05T04:42:56.299Z,8.04
2022-11-05T04:43:56.290Z,8.03
2022-11-05T04:44:56.288Z,8.03
2022-11-05T04:45:56.280Z,8.03
2022-11-05T04:46:56.250Z,8.04
2022-11-05T04:47:56.240Z,8.03
2022-11-05T04:48:56.225Z,8.02
2022-11-05T04:49:56.229Z,8.00
2022-11-05T04:50:56.217Z,8.02
2022-11-05T04:51:56.208Z,8.03
2022-11-05T04:52:56.240Z,8.00
2022-11-05T04:53:56.182Z,8.00
2022-11-05T04:54:56.173Z,7.99
2022-11-05T04:55:56.168Z,7.96
2022-11-05T04:56:56.138Z,7.95
2022-11-05T04:57:56.120Z,7.95
2022-11-05T04:58:56.123Z,7.99
2022-11-05T04:59:56.079Z,7.95
2022-11-05T05:00:56.091Z,7.95
2022-11-05T05:01:56.132Z,7.94
2022-11-05T05:02:56.062Z,7.92
2022-11-05T05:03:56.025Z,7.94
2022-11-05T05:04:56.028Z,7.95
2022-11-05T05:05:59.477Z,7.95
2022-11-05T05:06:57.003Z,7.94
2022-11-05T05:07:56.018Z,7.92
2022-11-05T05:08:55.973Z,7.86
2022-11-05T05:09:55.964Z,7.86
2022-11-05T05:10:55.953Z,7.88
2022-11-05T05:11:55.947Z,7.89
2022-11-05T05:12:55.917Z,7.91
2022-11-05T05:13:55.933Z,7.86
2022-11-05T05:14:55.899Z,7.86
2022-11-05T05:15:55.906Z,7.84
2022-11-05T05:16:55.876Z,7.82
2022-11-05T05:17:55.864Z,7.82
2022-11-05T05:18:55.862Z,7.85
2022-11-05T05:19:55.870Z,7.82
2022-11-05T05:20:55.800Z,7.79
2022-11-05T05:21:55.814Z,7.81
2022-11-05T05:22:55.799Z,7.81
2022-11-05T05:23:55.782Z,7.81
2022-11-05T05:24:55.787Z,7.79
2022-11-05T05:25:55.944Z,7.79
2022-11-05T05:26:56.076Z,7.79
2022-11-05T05:27:55.739Z,7.76
2022-11-05T05:28:55.726Z,7.76
2022-11-05T05:29:55.733Z,7.73
2022-11-05T05:30:58.701Z,7.71
2022-11-05T05:31:55.735Z,7.74
2022-11-05T05:32:55.660Z,7.76
2022-11-05T05:33:55.653Z,7.74
2022-11-05T05:34:55.656Z,7.76
2022-11-05T05:35:56.596Z,7.76
2022-11-05T05:36:55.662Z,7.71
2022-11-05T05:37:55.603Z,7.74
2022-11-05T05:38:55.593Z,7.71
2022-11-05T05:39:55.613Z,7.70
2022-11-05T05:40:55.566Z,7.71
2022-11-05T05:41:55.571Z,7.67
2022-11-05T05:42:55.578Z,7.66
2022-11-05T05:43:55.530Z,7.67
2022-11-05T05:44:55.556Z,7.67
2022-11-05T05:45:55.826Z,7.66
2022-11-05T05:46:55.480Z,7.62
2022-11-05T05:47:55.477Z,7.62
2022-11-05T05:48:55.475Z,7.62
2022-11-05T05:49:55.465Z,7.63
2022-11-05T05:50:55.461Z,7.63
2022-11-05T05:51:55.427Z,7.62
2022-11-05T05:52:55.413Z,7.60
2022-11-05T05:53:55.391Z,7.58
2022-11-05T05:54:55.448Z,7.58
2022-11-05T05:55:55.788Z,7.57
2022-11-05T05:56:55.365Z,7.58
2022-11-05T05:57:55.371Z,7.60
2022-11-05T05:58:55.337Z,7.60
2022-11-05T05:59:55.322Z,7.58
2022-11-05T06:00:55.316Z,7.60
2022-11-05T06:01:55.509Z,7.57
2022-11-05T06:02:55.357Z,7.58
2022-11-05T06:03:55.279Z,7.60
2022-11-05T06:04:55.296Z,7.62
2022-11-05T06:05:56.216Z,7.63
2022-11-05T06:06:55.349Z,7.62
2022-11-05T06:07:55.232Z,7.58
2022-11-05T06:08:55.216Z,7.58
2022-11-05T06:09:55.280Z,7.57
2022-11-05T06:10:55.343Z,7.57
2022-11-05T06:11:55.169Z,7.57
2022-11-05T06:12:55.163Z,7.57
2022-11-05T06:13:55.148Z,7.55
2022-11-05T06:14:55.159Z,7.57
2022-11-05T06:15:55.323Z,7.55
2022-11-05T06:16:55.117Z,7.57
2022-11-05T06:17:55.133Z,7.54
2022-11-05T06:18:55.105Z,7.51
2022-11-05T06:19:55.120Z,7.50
2022-11-05T06:20:55.109Z,7.48
2022-11-05T06:21:55.053Z,7.50
2022-11-05T06:22:55.093Z,7.48
2022-11-05T06:23:55.028Z,7.48
2022-11-05T06:24:55.043Z,7.50
2022-11-05T06:25:55.007Z,7.45
2022-11-05T06:26:55.011Z,7.45
2022-11-05T06:27:55.010Z,7.44
2022-11-05T06:28:54.991Z,7.45
2022-11-05T06:29:54.981Z,7.73
2022-11-05T06:30:54.982Z,7.84
2022-11-05T06:31:54.930Z,7.82
2022-11-05T06:32:54.909Z,7.85
2022-11-05T06:33:54.906Z,7.92
2022-11-05T06:34:54.927Z,7.88
2022-11-05T06:35:54.907Z,8.03
2022-11-05T06:36:54.863Z,8.03
2022-11-05T06:37:54.872Z,8.21
2022-11-05T06:38:54.855Z,8.32
2022-11-05T06:39:54.870Z,8.39
2022-11-05T06:40:54.814Z,8.28
2022-11-05T06:42:17.234Z,8.04
2022-11-05T06:42:55.805Z,7.94
2022-11-05T06:43:54.797Z,8.03
2022-11-05T06:44:54.779Z,8.03
2022-11-05T06:45:54.776Z,8.10
2022-11-05T06:46:54.742Z,8.13
2022-11-05T06:47:54.721Z,8.20
2022-11-05T06:48:54.713Z,8.09
2022-11-05T06:49:54.708Z,7.95
2022-11-05T06:50:54.676Z,7.82
2022-11-05T06:51:54.693Z,7.76
2022-11-05T06:52:54.681Z,7.69
2022-11-05T06:53:54.676Z,7.66
2022-11-05T06:54:54.651Z,7.60
2022-11-05T06:55:54.651Z,7.58
2022-11-05T06:56:54.653Z,7.55
2022-11-05T06:57:54.616Z,7.54
2022-11-05T06:58:54.580Z,7.52
2022-11-05T06:59:59.954Z,7.54
2022-11-05T07:00:55.610Z,7.51
2022-11-05T07:01:54.619Z,7.52
2022-11-05T07:02:54.533Z,7.55
2022-11-05T07:03:54.536Z,7.58
2022-11-05T07:04:54.507Z,7.58
2022-11-05T07:05:54.505Z,7.63
2022-11-05T07:06:54.479Z,7.63
2022-11-05T07:07:54.457Z,7.60
2022-11-05T07:08:54.478Z,7.63
2022-11-05T07:09:54.468Z,7.66
2022-11-05T07:10:54.494Z,7.69
2022-11-05T07:11:54.417Z,7.67
2022-11-05T07:12:54.416Z,7.69
2022-11-05T07:13:54.480Z,7.66
2022-11-05T07:14:54.406Z,7.63
2022-11-05T07:15:54.357Z,7.66
2022-11-05T07:16:54.418Z,7.74
2022-11-05T07:17:54.332Z,7.81
2022-11-05T07:18:54.346Z,7.79
2022-11-05T07:19:54.357Z,7.79
2022-11-05T07:20:54.306Z,7.77
2022-11-05T07:21:54.310Z,7.73
2022-11-05T07:22:54.306Z,7.71
2022-11-05T07:23:54.270Z,7.70
2022-11-05T07:24:54.283Z,7.70
2022-11-05T07:25:54.250Z,7.69
2022-11-05T07:26:54.256Z,7.73
2022-11-05T07:27:54.224Z,7.76
2022-11-05T07:28:54.211Z,7.77
2022-11-05T07:29:54.186Z,7.73
2022-11-05T07:30:54.217Z,7.71
2022-11-05T07:31:54.177Z,7.71
2022-11-05T07:32:54.156Z,7.71
2022-11-05T07:33:54.141Z,7.73
2022-11-05T07:34:54.155Z,7.74
2022-11-05T07:35:54.140Z,7.74
2022-11-05T07:36:54.140Z,7.76
2022-11-05T07:37:54.105Z,7.73
2022-11-05T07:38:59.861Z,7.67
2022-11-05T07:39:55.214Z,7.58
2022-11-05T07:40:54.047Z,7.51
2022-11-05T07:41:54.080Z,7.51
2022-11-05T07:42:54.085Z,7.51
2022-11-05T07:43:54.007Z,7.47
2022-11-05T07:44:53.994Z,7.45
2022-11-05T07:45:53.979Z,7.57
2022-11-05T07:46:53.960Z,7.60
2022-11-05T07:47:53.973Z,7.79
2022-11-05T07:48:53.978Z,7.85
2022-11-05T07:49:53.977Z,7.84
2022-11-05T07:50:54.269Z,7.81
2022-11-05T07:51:54.655Z,7.74
2022-11-05T07:52:53.898Z,7.82
2022-11-05T07:53:53.922Z,7.86
2022-11-05T07:54:53.863Z,8.00
2022-11-05T07:55:53.858Z,7.94
2022-11-05T07:56:53.902Z,7.92
2022-11-05T07:57:53.816Z,7.91
2022-11-05T07:58:53.814Z,7.81
2022-11-05T07:59:53.835Z,7.73
2022-11-05T08:00:53.882Z,7.71
2022-11-05T08:01:54.037Z,7.66
2022-11-05T08:02:53.985Z,7.69
2022-11-05T08:03:53.791Z,7.70
2022-11-05T08:04:53.753Z,7.79
2022-11-05T08:05:53.740Z,7.86
2022-11-05T08:06:53.714Z,7.86
2022-11-05T08:07:53.708Z,7.77
2022-11-05T08:08:53.703Z,7.74
2022-11-05T08:09:53.673Z,7.70
2022-11-05T08:10:53.674Z,7.73
2022-11-05T08:11:57.361Z,7.77
2022-11-05T08:12:54.710Z,8.04
2022-11-05T08:13:53.616Z,8.00
2022-11-05T08:14:53.613Z,8.02
2022-11-05T08:15:53.925Z,8.04
2022-11-05T08:16:53.604Z,8.14
2022-11-05T08:17:53.902Z,8.12
2022-11-05T08:18:53.630Z,8.14
2022-11-05T08:19:53.555Z,8.24
2022-11-05T08:20:53.546Z,8.29
2022-11-05T08:21:53.512Z,8.22
2022-11-05T08:22:53.521Z,8.17
2022-11-05T08:23:53.528Z,8.12
2022-11-05T08:24:53.501Z,8.09
2022-11-05T08:25:53.597Z,8.06
2022-11-05T08:26:53.463Z,8.04
2022-11-05T08:27:53.470Z,8.02
2022-11-05T08:28:53.449Z,8.00
2022-11-05T08:29:53.610Z,7.99
2022-11-05T08:30:53.396Z,7.96
2022-11-05T08:31:53.385Z,7.95
2022-11-05T08:32:53.391Z,7.95
2022-11-05T08:33:56.061Z,7.95
2022-11-05T08:34:54.379Z,7.95
2022-11-05T08:35:53.380Z,7.96
2022-11-05T08:36:53.333Z,8.00
2022-11-05T08:37:53.317Z,8.00
2022-11-05T08:38:53.293Z,8.00
2022-11-05T08:39:53.289Z,8.03
2022-11-05T08:40:53.278Z,8.06
2022-11-05T08:41:53.317Z,8.09
2022-11-05T08:42:53.254Z,8.13
2022-11-05T08:43:53.241Z,8.14
2022-11-05T08:45:00.524Z,8.17
2022-11-05T08:45:53.209Z,8.22
2022-11-05T08:46:53.193Z,8.28
2022-11-05T08:47:53.174Z,8.32
2022-11-05T08:48:53.173Z,8.42
2022-11-05T08:49:53.150Z,8.46
2022-11-05T08:50:53.136Z,8.46
2022-11-05T08:51:53.131Z,8.50
2022-11-05T08:52:53.142Z,8.54
2022-11-05T08:53:53.094Z,8.54
2022-11-05T08:54:53.093Z,8.55
2022-11-05T08:55:53.130Z,8.60
2022-11-05T08:56:53.060Z,8.64
2022-11-05T08:57:53.049Z,8.65
2022-11-05T08:58:53.540Z,8.70
2022-11-05T08:59:53.028Z,8.73
2022-11-05T09:00:53.062Z,8.73
2022-11-05T09:01:53.163Z,8.75
2022-11-05T09:02:52.986Z,8.71
2022-11-05T09:03:52.970Z,8.76
2022-11-05T09:04:52.958Z,8.78
2022-11-05T09:05:52.963Z,8.80
2022-11-05T09:06:53.176Z,8.86
2022-11-05T09:07:57.911Z,8.91
2022-11-05T09:08:53.902Z,8.91
2022-11-05T09:09:52.900Z,8.89
2022-11-05T09:10:52.892Z,8.88
2022-11-05T09:12:53.847Z,8.89
2022-11-05T09:13:52.845Z,8.93
2022-11-05T09:14:52.828Z,8.91
2022-11-05T09:15:52.855Z,8.94
2022-11-05T09:16:52.886Z,8.96
2022-11-05T09:17:54.016Z,8.94
2022-11-05T09:18:52.798Z,8.94
2022-11-05T09:19:52.748Z,9.00
2022-11-05T09:20:52.754Z,9.00
2022-11-05T09:21:52.724Z,9.04
2022-11-05T09:22:52.736Z,9.12
2022-11-05T09:23:52.713Z,9.16
2022-11-05T09:24:52.775Z,9.16
2022-11-05T09:25:52.694Z,9.22
2022-11-05T09:26:52.655Z,9.27
2022-11-05T09:27:52.653Z,9.32
2022-11-05T09:28:52.635Z,9.35
2022-11-05T09:29:52.656Z,9.32
2022-11-05T09:30:52.622Z,9.30
2022-11-05T09:31:52.633Z,9.31
2022-11-05T09:32:52.614Z,9.35
2022-11-05T09:33:52.593Z,9.40
2022-11-05T09:34:52.553Z,9.42
2022-11-05T09:35:52.573Z,9.45
2022-11-05T09:36:52.534Z,9.48
2022-11-05T09:37:56.743Z,9.49
2022-11-05T09:38:53.576Z,9.48
2022-11-05T09:39:52.489Z,9.48
2022-11-05T09:40:52.490Z,9.50
2022-11-05T09:41:52.460Z,9.52
2022-11-05T09:42:52.447Z,9.49
2022-11-05T09:43:52.432Z,9.49
2022-11-05T09:44:52.426Z,9.55
2022-11-05T09:45:52.408Z,9.60
2022-11-05T09:46:52.379Z,9.62
2022-11-05T09:47:52.384Z,9.63
2022-11-05T09:48:52.362Z,9.62
2022-11-05T09:49:52.358Z,9.65
2022-11-05T09:50:52.346Z,9.67
2022-11-05T09:51:52.330Z,9.63
2022-11-05T09:52:52.316Z,9.68
2022-11-05T09:53:52.301Z,9.77
2022-11-05T09:54:52.309Z,9.80
2022-11-05T09:55:52.299Z,9.81
2022-11-05T09:56:52.267Z,9.85
2022-11-05T09:57:52.268Z,9.92
2022-11-05T09:58:52.236Z,9.95
2022-11-05T09:59:52.228Z,9.95
2022-11-05T10:00:52.316Z,9.95
2022-11-05T10:01:52.353Z,9.93
2022-11-05T10:02:52.187Z,9.95
2022-11-05T10:03:52.165Z,9.96
2022-11-05T10:04:52.203Z,10.04
2022-11-05T10:05:52.281Z,10.06
2022-11-05T10:06:52.186Z,10.09
2022-11-05T10:07:52.143Z,10.10
2022-11-05T10:08:52.110Z,10.10
2022-11-05T10:09:52.088Z,10.13
2022-11-05T10:10:52.123Z,10.14
2022-11-05T10:11:52.184Z,10.22
2022-11-05T10:12:52.051Z,10.24
2022-11-05T10:13:52.059Z,10.24
2022-11-05T10:14:52.045Z,10.26
2022-11-05T10:15:52.050Z,10.28
2022-11-05T10:16:52.013Z,10.34
2022-11-05T10:17:51.993Z,10.35
2022-11-05T10:18:51.971Z,10.36
2022-11-05T10:19:51.981Z,10.42
2022-11-05T10:20:52.016Z,10.43
2022-11-05T10:22:06.050Z,10.44
2022-11-05T10:22:52.922Z,10.49
2022-11-05T10:23:51.916Z,10.51
2022-11-05T10:24:51.911Z,10.52
2022-11-05T10:25:51.891Z,10.54
2022-11-05T10:26:51.888Z,10.62
2022-11-05T10:27:51.881Z,10.63
2022-11-05T10:28:51.851Z,10.65
2022-11-05T10:29:51.838Z,10.62
2022-11-05T10:30:51.830Z,10.60
2022-11-05T10:31:51.807Z,10.65
2022-11-05T10:32:51.800Z,10.63
2022-11-05T10:33:51.800Z,10.65
2022-11-05T10:34:51.868Z,10.68
2022-11-05T10:35:51.778Z,10.70
2022-11-05T10:36:51.762Z,10.75
2022-11-05T10:37:51.741Z,10.84
2022-11-05T10:38:51.718Z,10.86
2022-11-05T10:39:51.725Z,10.86
2022-11-05T10:40:51.712Z,10.88
2022-11-05T10:41:51.698Z,10.90
2022-11-05T10:42:52.412Z,10.91
2022-11-05T10:43:51.655Z,10.94
2022-11-05T10:44:51.644Z,10.99
2022-11-05T10:45:51.649Z,10.98
2022-11-05T10:46:51.618Z,10.98
2022-11-05T10:47:51.623Z,10.98
2022-11-05T10:48:51.667Z,10.98
2022-11-05T10:49:51.575Z,10.99
2022-11-05T10:50:51.566Z,11.06
2022-11-05T10:51:51.556Z,11.13
2022-11-05T10:52:51.548Z,11.17
2022-11-05T10:53:51.540Z,11.20
2022-11-05T10:54:51.515Z,11.24
2022-11-05T10:55:51.516Z,11.26
2022-11-05T10:56:51.511Z,11.21
2022-11-05T10:57:51.491Z,11.23
2022-11-05T10:58:51.499Z,11.28
2022-11-05T10:59:51.469Z,11.31
2022-11-05T11:00:51.528Z,11.31
2022-11-05T11:01:51.523Z,11.35
2022-11-05T11:02:51.413Z,11.36
2022-11-05T11:03:51.420Z,11.39
2022-11-05T11:04:51.394Z,11.39
2022-11-05T11:05:51.457Z,11.41
2022-11-05T11:06:51.387Z,11.38
2022-11-05T11:07:51.344Z,11.41
2022-11-05T11:08:51.353Z,11.44
2022-11-05T11:09:51.333Z,11.46
2022-11-05T11:10:51.359Z,11.48
2022-11-05T11:11:51.297Z,11.48
2022-11-05T11:12:51.284Z,11.49
2022-11-05T11:13:51.267Z,11.53
2022-11-05T11:14:51.265Z,11.56
2022-11-05T11:15:51.273Z,11.56
2022-11-05T11:16:51.275Z,11.60
2022-11-05T11:17:51.259Z,11.63
2022-11-05T11:18:51.201Z,11.64
2022-11-05T11:19:51.231Z,11.67
2022-11-05T11:20:51.192Z,11.69
2022-11-05T11:21:51.192Z,11.70
2022-11-05T11:22:51.901Z,11.74
2022-11-05T11:23:51.189Z,11.72
2022-11-05T11:24:51.142Z,11.74
2022-11-05T11:25:52.100Z,11.74
2022-11-05T11:26:51.123Z,11.72
2022-11-05T11:27:51.092Z,11.72
2022-11-05T11:28:51.146Z,11.75
2022-11-05T11:29:51.118Z,11.78
2022-11-05T11:30:51.105Z,11.81
2022-11-05T11:31:51.155Z,11.82
2022-11-05T11:32:51.089Z,11.85
2022-11-05T11:33:51.019Z,11.87
2022-11-05T11:34:51.027Z,11.88
2022-11-05T11:35:51.014Z,11.90
2022-11-05T11:36:51.025Z,11.96
2022-11-05T11:37:51.661Z,12.01
2022-11-05T11:38:50.959Z,12.03
2022-11-05T11:39:51.645Z,12.00
2022-11-05T11:40:50.950Z,12.01
2022-11-05T11:41:51.158Z,11.97
2022-11-05T11:42:51.040Z,11.88
2022-11-05T11:43:50.894Z,11.79
2022-11-05T11:44:50.878Z,11.75
2022-11-05T11:45:50.866Z,11.74
2022-11-05T11:46:50.842Z,11.70
2022-11-05T11:47:50.949Z,11.64
2022-11-05T11:48:50.853Z,11.67
2022-11-05T11:49:51.168Z,11.70
2022-11-05T11:50:50.804Z,11.67
2022-11-05T11:51:50.785Z,11.69
2022-11-05T11:52:50.787Z,11.72
2022-11-05T11:53:50.771Z,11.69
2022-11-05T11:54:50.756Z,11.67
2022-11-05T11:55:51.081Z,11.72
2022-11-05T11:56:50.742Z,11.78
2022-11-05T11:57:50.714Z,11.77
2022-11-05T11:58:50.737Z,11.77
2022-11-05T12:00:51.665Z,11.84
2022-11-05T12:01:50.854Z,11.93
2022-11-05T12:02:50.719Z,12.01
2022-11-05T12:03:50.636Z,12.07
2022-11-05T12:04:50.632Z,12.12
2022-11-05T12:05:50.857Z,12.12
2022-11-05T12:06:50.615Z,12.07
2022-11-05T12:07:50.604Z,12.00
2022-11-05T12:08:58.146Z,11.96
2022-11-05T12:09:51.565Z,11.93
2022-11-05T12:10:50.550Z,12.00
2022-11-05T12:11:50.572Z,12.03
2022-11-05T12:12:50.754Z,12.05
2022-11-05T12:13:51.493Z,12.03
2022-11-05T12:14:50.519Z,11.97
2022-11-05T12:15:50.559Z,12.01
2022-11-05T12:16:50.471Z,12.03
2022-11-05T12:17:50.524Z,12.07
2022-11-05T12:18:50.457Z,12.15
2022-11-05T12:19:50.456Z,12.19
2022-11-05T12:20:55.344Z,12.21
2022-11-05T12:21:53.371Z,12.26
2022-11-05T12:22:50.459Z,12.25
2022-11-05T12:23:50.418Z,12.19
2022-11-05T12:24:50.402Z,12.15
2022-11-05T12:25:50.379Z,12.15
2022-11-05T12:26:50.381Z,12.12
2022-11-05T12:27:50.358Z,12.04
2022-11-05T12:29:16.628Z,12.04
2022-11-05T12:29:51.298Z,12.07
2022-11-05T12:30:50.339Z,12.05
2022-11-05T12:31:50.317Z,12.07
2022-11-05T12:32:50.374Z,12.05
2022-11-05T12:33:50.258Z,12.05
2022-11-05T12:34:50.338Z,12.07
2022-11-05T12:35:54.942Z,12.05
2022-11-05T12:36:51.222Z,12.03
2022-11-05T12:37:50.210Z,12.01
2022-11-05T12:38:50.188Z,12.04
2022-11-05T12:39:50.170Z,12.00
2022-11-05T12:40:50.179Z,11.96
2022-11-05T12:41:50.147Z,11.94
2022-11-05T12:42:50.175Z,12.00
2022-11-05T12:43:51.147Z,12.04
2022-11-05T12:44:50.115Z,12.12
2022-11-05T12:45:50.166Z,12.16
2022-11-05T12:46:50.817Z,12.21
2022-11-05T12:47:50.186Z,12.15
2022-11-05T12:48:50.205Z,12.11
2022-11-05T12:49:50.059Z,12.08
2022-11-05T12:50:50.056Z,12.00
2022-11-05T12:51:50.044Z,11.97
2022-11-05T12:52:50.023Z,11.94
2022-11-05T12:53:50.017Z,11.90
2022-11-05T12:54:49.990Z,11.82
2022-11-05T12:55:49.981Z,11.81
2022-11-05T12:56:49.969Z,11.79
2022-11-05T12:57:49.946Z,11.77
2022-11-05T12:58:50.014Z,11.78
2022-11-05T12:59:49.914Z,11.81
2022-11-05T13:00:49.969Z,11.82
2022-11-05T13:01:50.084Z,11.81
2022-11-05T13:02:49.884Z,11.82
2022-11-05T13:03:49.863Z,11.81
2022-11-05T13:04:49.844Z,11.81
2022-11-05T13:05:49.838Z,11.87
2022-11-05T13:06:49.821Z,11.96
2022-11-05T13:07:49.817Z,11.98
2022-11-05T13:08:49.805Z,12.03
2022-11-05T13:09:49.784Z,12.08
2022-11-05T13:10:49.774Z,12.15
2022-11-05T13:11:49.763Z,12.19
2022-11-05T13:12:49.766Z,12.23
2022-11-05T13:13:49.743Z,12.29
2022-11-05T13:14:49.729Z,12.29
2022-11-05T13:15:49.712Z,12.31